Broadview, Illinois
Current Conditions -  °F | °C
As of 10:53 PM on Friday 28 Nov 2014 (Local Time) from KMDW Reporting Station
Broken Clouds Broken Clouds  
Wind Chill: 27°   Ceiling: 21000
Heat Index: 35°   Visibility: 10mi
Dew Point: 28°   Wind: 10mph
Humidity: 76%   Direction: 180°S
Pressure: 29.9"   Gusts: NA
Location:  41.8566°N, 87.8552°W
Report Text: KMDW 290453Z 18009KT 10SM SCT180 BKN210 02/M02 A2990 RMK AO2 SLP135 T00171022 $
Loading
Personal Weather Stations






























Interactive Weather Map New forecast layout! Learn more

10-Day Weather Forecast

Advertisements
Track Severe Weather on mobile